Terminal Aerodrome Forecast
Issued by NWS

Home | Current Version | Previous Version | Graphics & Text | Print | Product List | Glossary On
Versions: 1 2 3 4 5 6 7 8 9 10 11 12 13 14 15 16
000
FTUS43 KBIS 191736
TAFMOT
TAF
KMOT 191736Z 1918/2018 34005KT P6SM OVC150
     FM192200 01004KT P6SM SCT030 OVC045
     FM200000 01004KT P6SM -SN SCT015 OVC030
     FM200400 00000KT 2SM -SN OVC020
     FM200900 28005KT 2SM -SN SCT010 OVC020
     FM201200 27005KT P6SM OVC020
     FM201700 26008KT P6SM BKN035=

USA.gov is the U.S. government's official web portal to all federal, state and local government web resources and services.